createdAt,value
2023-02-14T00:01:15.351Z,21.73
2023-02-14T00:03:42.477Z,19.73
2023-02-14T00:06:12.442Z,19.98
2023-02-14T00:08:41.199Z,21.52
2023-02-14T00:11:11.497Z,16.08
2023-02-14T00:13:39.450Z,19.75
2023-02-14T00:16:06.988Z,22.30
2023-02-14T00:18:52.636Z,22.42
2023-02-14T00:21:19.813Z,18.88
2023-02-14T00:23:47.009Z,20.30
2023-02-14T00:26:17.421Z,20.45
2023-02-14T00:28:45.031Z,21.25
2023-02-14T00:31:12.615Z,20.17
2023-02-14T00:33:40.045Z,17.20
2023-02-14T00:36:07.609Z,19.35
2023-02-14T00:38:35.298Z,17.77
2023-02-14T00:41:03.904Z,16.80
2023-02-14T00:43:31.568Z,18.70
2023-02-14T00:46:01.642Z,18.75
2023-02-14T00:48:28.934Z,18.80
2023-02-14T00:50:56.346Z,16.75
2023-02-14T00:53:23.647Z,16.58
2023-02-14T00:55:50.835Z,16.98
2023-02-14T00:58:18.065Z,18.92
2023-02-14T01:00:45.286Z,19.23
2023-02-14T01:03:12.929Z,17.17
2023-02-14T01:05:40.173Z,18.75
2023-02-14T01:08:07.619Z,17.67
2023-02-14T01:10:37.310Z,18.17
2023-02-14T01:13:04.884Z,17.63
2023-02-14T01:15:32.975Z,16.55
2023-02-14T01:18:00.674Z,19.65
2023-02-14T01:20:27.962Z,17.83
2023-02-14T01:22:55.170Z,17.77
2023-02-14T01:25:22.358Z,17.05
2023-02-14T01:27:49.542Z,19.83
2023-02-14T01:30:17.255Z,19.73
2023-02-14T01:32:45.334Z,19.20
2023-02-14T01:35:12.692Z,18.50
2023-02-14T01:37:40.380Z,21.08
2023-02-14T01:40:15.656Z,19.10
2023-02-14T01:42:43.850Z,16.90
2023-02-14T01:45:19.163Z,16.10
2023-02-14T01:47:52.011Z,18.88
2023-02-14T01:52:59.866Z,17.02
2023-02-14T01:55:32.449Z,18.92
2023-02-14T01:58:04.145Z,19.77
2023-02-14T02:00:50.330Z,19.27
2023-02-14T02:03:19.376Z,20.70
2023-02-14T02:05:54.949Z,20.48
2023-02-14T02:08:24.974Z,18.80
2023-02-14T02:10:52.161Z,18.38
2023-02-14T02:13:22.125Z,19.88
2023-02-14T02:16:12.995Z,17.02
2023-02-14T02:19:24.686Z,17.17
2023-02-14T02:22:18.268Z,18.02
2023-02-14T02:25:09.507Z,19.00
2023-02-14T02:28:27.145Z,18.25
2023-02-14T02:31:40.387Z,19.45
2023-02-14T02:34:26.538Z,20.65
2023-02-14T02:36:56.417Z,19.10
2023-02-14T02:39:40.909Z,20.95
2023-02-14T02:42:51.319Z,20.08
2023-02-14T02:46:00.049Z,20.85
2023-02-14T02:48:36.520Z,20.15
2023-02-14T02:51:26.506Z,20.45
2023-02-14T02:54:03.757Z,18.58
2023-02-14T02:56:46.616Z,17.80
2023-02-14T02:59:24.753Z,18.45
2023-02-14T03:02:14.970Z,18.98
2023-02-14T03:04:54.053Z,16.85
2023-02-14T03:07:39.860Z,19.95
2023-02-14T03:10:20.464Z,17.40
2023-02-14T03:13:06.346Z,17.10
2023-02-14T03:16:10.545Z,18.08
2023-02-14T03:19:19.487Z,16.48
2023-02-14T03:22:15.744Z,17.58
2023-02-14T03:24:59.074Z,19.92
2023-02-14T03:27:32.813Z,18.98
2023-02-14T03:30:08.073Z,18.23
2023-02-14T03:32:43.868Z,19.38
2023-02-14T03:35:18.599Z,16.30
2023-02-14T03:37:55.321Z,18.80
2023-02-14T03:40:35.331Z,17.80
2023-02-14T03:43:15.506Z,19.20
2023-02-14T03:46:08.726Z,18.02
2023-02-14T03:48:38.228Z,17.10
2023-02-14T03:51:09.479Z,17.02
2023-02-14T03:53:40.348Z,20.80
2023-02-14T03:56:22.594Z,20.17
2023-02-14T04:01:26.279Z,16.60
2023-02-14T04:03:55.947Z,16.75
2023-02-14T04:06:23.446Z,17.25
2023-02-14T04:08:50.726Z,20.35
2023-02-14T04:11:18.074Z,19.95
2023-02-14T04:13:45.391Z,19.05
2023-02-14T04:16:12.606Z,18.70
2023-02-14T04:18:58.130Z,20.75
2023-02-14T04:21:26.511Z,18.23
2023-02-14T04:23:53.688Z,18.02
2023-02-14T04:26:20.791Z,18.67
2023-02-14T04:28:47.967Z,19.48
2023-02-14T04:31:15.975Z,18.65
2023-02-14T04:33:44.964Z,17.65
2023-02-14T04:36:12.300Z,17.85
2023-02-14T04:38:39.563Z,19.10
2023-02-14T04:41:06.738Z,18.90
2023-02-14T04:43:33.954Z,21.02
2023-02-14T04:46:01.158Z,18.05
2023-02-14T04:48:28.367Z,21.75
2023-02-14T04:50:55.833Z,20.85
2023-02-14T04:53:22.995Z,18.90
2023-02-14T04:55:50.578Z,20.85
2023-02-14T04:58:18.464Z,21.77
2023-02-14T05:00:45.827Z,21.50
2023-02-14T05:03:13.048Z,19.35
2023-02-14T05:05:40.295Z,17.60
2023-02-14T05:08:07.441Z,19.23
2023-02-14T05:10:34.645Z,19.40
2023-02-14T05:13:02.117Z,19.02
2023-02-14T05:15:29.395Z,20.90
2023-02-14T05:17:59.871Z,21.48
2023-02-14T05:20:27.295Z,22.55
2023-02-14T05:22:54.558Z,19.00
2023-02-14T05:25:21.848Z,20.98
2023-02-14T05:27:49.018Z,20.35
2023-02-14T05:30:16.517Z,20.67
2023-02-14T05:32:43.732Z,19.20
2023-02-14T05:35:11.040Z,24.65
2023-02-14T05:37:38.265Z,22.23
2023-02-14T05:40:07.526Z,20.48
2023-02-14T05:42:34.828Z,20.85
2023-02-14T05:45:02.550Z,22.52
2023-02-14T05:47:29.804Z,20.17
2023-02-14T05:49:56.957Z,21.05
2023-02-14T05:52:24.276Z,18.52
2023-02-14T05:54:51.793Z,19.42
2023-02-14T05:57:18.976Z,19.58
2023-02-14T05:59:46.171Z,19.88
2023-02-14T06:02:14.327Z,21.00
2023-02-14T06:04:41.866Z,21.27
2023-02-14T06:07:09.105Z,20.70
2023-02-14T06:09:36.283Z,19.33
2023-02-14T06:12:03.554Z,18.20
2023-02-14T06:14:30.713Z,18.13
2023-02-14T06:16:57.980Z,17.92
2023-02-14T06:19:25.241Z,16.35
2023-02-14T06:21:52.506Z,19.15
2023-02-14T06:24:19.757Z,20.27
2023-02-14T06:26:46.944Z,19.98
2023-02-14T06:29:16.900Z,19.00
2023-02-14T06:31:44.574Z,19.45
2023-02-14T06:34:11.949Z,17.98
2023-02-14T06:36:39.249Z,20.98
2023-02-14T06:39:06.527Z,21.35
2023-02-14T06:41:33.841Z,20.30
2023-02-14T06:44:01.116Z,17.33
2023-02-14T06:46:28.309Z,19.83
2023-02-14T06:48:55.512Z,19.88
2023-02-14T06:51:22.694Z,20.05
2023-02-14T06:53:49.986Z,22.00
2023-02-14T06:56:17.176Z,20.15
2023-02-14T06:58:44.378Z,21.50
2023-02-14T07:01:11.673Z,18.58
2023-02-14T07:03:39.037Z,17.83
2023-02-14T07:06:06.355Z,18.48
2023-02-14T07:08:33.697Z,17.17
2023-02-14T07:11:01.306Z,19.90
2023-02-14T07:13:28.900Z,20.27
2023-02-14T07:15:56.609Z,20.33
2023-02-14T07:18:23.838Z,19.52
2023-02-14T07:20:51.444Z,19.77
2023-02-14T07:23:18.666Z,20.10
2023-02-14T07:25:45.992Z,21.75
2023-02-14T07:28:13.238Z,22.48
2023-02-14T07:30:40.508Z,22.95
2023-02-14T07:33:07.887Z,21.38
2023-02-14T07:35:35.714Z,22.85
2023-02-14T07:38:02.942Z,18.80
2023-02-14T07:40:30.253Z,20.58
2023-02-14T07:42:58.539Z,23.55
2023-02-14T07:45:26.713Z,19.85
2023-02-14T07:47:55.293Z,21.30
2023-02-14T07:50:23.745Z,24.20
2023-02-14T07:52:51.464Z,22.13
2023-02-14T07:55:19.486Z,22.38
2023-02-14T07:57:50.072Z,20.02
2023-02-14T08:00:17.810Z,20.60
2023-02-14T08:02:45.310Z,22.75
2023-02-14T08:05:12.723Z,21.67
2023-02-14T08:07:39.951Z,21.80
2023-02-14T08:10:07.751Z,19.73
2023-02-14T08:12:53.861Z,21.70
2023-02-14T08:15:39.362Z,22.83
2023-02-14T08:18:06.585Z,22.13
2023-02-14T08:20:33.722Z,22.45
2023-02-14T08:23:00.993Z,24.88
2023-02-14T08:25:28.333Z,25.77
2023-02-14T08:27:55.767Z,24.13
2023-02-14T08:30:24.331Z,26.70
2023-02-14T08:32:53.169Z,25.30
2023-02-14T08:35:20.434Z,25.88
2023-02-14T08:37:48.244Z,23.70
2023-02-14T08:40:15.862Z,22.40
2023-02-14T08:42:43.176Z,26.83
2023-02-14T08:45:10.860Z,25.27
2023-02-14T08:47:38.653Z,25.63
2023-02-14T08:50:08.306Z,24.48
2023-02-14T08:52:35.534Z,27.08
2023-02-14T08:55:03.577Z,28.50
2023-02-14T08:57:30.852Z,28.25
2023-02-14T08:59:58.063Z,27.85
2023-02-14T09:02:25.309Z,25.10
2023-02-14T09:04:52.523Z,24.60
2023-02-14T09:07:20.035Z,26.17
2023-02-14T09:09:47.395Z,23.33
2023-02-14T09:12:14.747Z,22.05
2023-02-14T09:14:46.189Z,19.80
2023-02-14T09:17:14.952Z,21.30
2023-02-14T09:19:42.587Z,20.77
2023-02-14T09:22:11.552Z,22.70
2023-02-14T09:24:39.976Z,21.38
2023-02-14T09:27:08.518Z,20.70
2023-02-14T09:29:37.269Z,24.65
2023-02-14T09:32:05.307Z,24.00
2023-02-14T09:34:34.642Z,25.10
2023-02-14T09:37:20.376Z,27.83
2023-02-14T09:39:47.534Z,25.65
2023-02-14T09:42:32.953Z,26.90
2023-02-14T09:45:09.761Z,36.45
2023-02-14T09:47:40.554Z,36.22
2023-02-14T09:50:18.354Z,40.92
2023-02-14T09:52:49.517Z,43.05
2023-02-14T09:55:18.290Z,41.13
2023-02-14T09:57:59.072Z,45.05
2023-02-14T10:00:52.173Z,42.72
2023-02-14T10:03:47.315Z,39.78
2023-02-14T10:06:31.362Z,41.58
2023-02-14T10:09:16.829Z,40.42
2023-02-14T10:11:47.652Z,40.75
2023-02-14T10:14:24.709Z,39.25
2023-02-14T10:17:16.316Z,37.83
2023-02-14T10:19:50.028Z,37.28
2023-02-14T10:22:21.433Z,42.35
2023-02-14T10:24:53.186Z,33.40
2023-02-14T10:27:29.533Z,40.40
2023-02-14T10:29:57.009Z,35.08
2023-02-14T10:32:46.990Z,37.72
2023-02-14T10:35:43.259Z,42.65
2023-02-14T10:38:18.317Z,35.65
2023-02-14T10:40:55.822Z,35.92
2023-02-14T10:43:56.672Z,38.58
2023-02-14T10:46:54.375Z,33.50
2023-02-14T10:50:00.779Z,29.55
2023-02-14T10:52:39.875Z,26.33
2023-02-14T10:55:32.834Z,27.50
2023-02-14T10:58:05.542Z,31.70
2023-02-14T11:00:41.360Z,38.00
2023-02-14T11:03:10.888Z,33.00
2023-02-14T11:05:46.763Z,35.85
2023-02-14T11:08:26.564Z,34.80
2023-02-14T11:11:19.583Z,34.50
2023-02-14T11:13:47.191Z,28.95
2023-02-14T11:16:35.458Z,30.63
2023-02-14T11:19:14.894Z,30.02
2023-02-14T11:21:47.298Z,26.25
2023-02-14T11:27:04.359Z,30.35
2023-02-14T11:29:36.656Z,31.10
2023-02-14T11:34:48.348Z,23.73
2023-02-14T11:37:20.760Z,25.85
2023-02-14T11:39:49.126Z,28.08
2023-02-14T11:42:33.845Z,27.98
2023-02-14T11:45:01.220Z,24.20
2023-02-14T11:47:30.888Z,22.58
2023-02-14T11:50:07.256Z,20.67
2023-02-14T11:52:49.467Z,21.08
2023-02-14T11:55:43.301Z,18.48
2023-02-14T11:58:31.410Z,15.55
2023-02-14T12:01:00.250Z,13.18
2023-02-14T12:03:34.009Z,11.15
2023-02-14T12:06:03.526Z,10.18
2023-02-14T12:08:31.952Z,10.18
2023-02-14T12:11:17.873Z,8.75
2023-02-14T12:14:00.854Z,10.32
2023-02-14T12:16:42.436Z,8.32
2023-02-14T12:19:23.461Z,7.13
2023-02-14T12:21:57.117Z,7.78
2023-02-14T12:24:28.470Z,7.38
2023-02-14T12:26:55.709Z,8.10
2023-02-14T12:29:44.494Z,6.97
2023-02-14T12:32:21.515Z,7.53
2023-02-14T12:34:49.944Z,8.45
2023-02-14T12:37:50.870Z,5.60
2023-02-14T12:40:52.389Z,5.78
2023-02-14T12:43:19.494Z,6.70
2023-02-14T12:46:03.443Z,5.72
2023-02-14T12:48:50.801Z,6.15
2023-02-14T12:51:30.178Z,6.88
2023-02-14T12:54:23.354Z,6.90
2023-02-14T12:57:17.407Z,11.18
2023-02-14T13:00:02.152Z,11.63
2023-02-14T13:02:38.535Z,14.02
2023-02-14T13:05:33.987Z,15.38
2023-02-14T13:08:28.859Z,20.67
2023-02-14T13:11:00.676Z,16.55
2023-02-14T13:13:28.513Z,19.05
2023-02-14T13:16:14.754Z,20.48
2023-02-14T13:18:51.888Z,46.17
2023-02-14T13:21:24.631Z,26.08
2023-02-14T13:24:12.794Z,22.55
2023-02-14T13:26:44.573Z,20.52
2023-02-14T13:29:17.883Z,16.88
2023-02-14T13:31:46.564Z,17.20
2023-02-14T13:34:33.006Z,14.90
2023-02-14T13:37:02.651Z,15.27
2023-02-14T13:39:39.105Z,12.77
2023-02-14T13:42:07.430Z,10.38
2023-02-14T13:44:49.128Z,10.43
2023-02-14T13:47:27.207Z,10.10
2023-02-14T13:50:02.421Z,11.43
2023-02-14T13:52:43.055Z,8.73
2023-02-14T13:55:23.184Z,9.20
2023-02-14T13:58:06.920Z,9.00
2023-02-14T14:00:41.747Z,8.50
2023-02-14T14:03:32.558Z,8.38
2023-02-14T14:06:09.331Z,8.07
2023-02-14T14:08:39.435Z,8.60
2023-02-14T14:11:27.567Z,7.22
2023-02-14T14:14:22.157Z,8.15
2023-02-14T14:17:19.915Z,8.13
2023-02-14T14:19:47.540Z,7.70
2023-02-14T14:22:15.714Z,7.53
2023-02-14T14:25:02.448Z,7.25
2023-02-14T14:27:36.280Z,7.63
2023-02-14T14:30:32.998Z,6.57
2023-02-14T14:33:32.961Z,6.40
2023-02-14T14:36:06.687Z,8.23
2023-02-14T14:38:47.867Z,10.30
2023-02-14T14:41:15.291Z,8.10
2023-02-14T14:43:42.909Z,7.15
2023-02-14T14:46:13.447Z,7.28
2023-02-14T14:48:45.587Z,10.13
2023-02-14T14:51:23.598Z,9.18
2023-02-14T14:54:00.145Z,7.50
2023-02-14T14:56:36.831Z,7.40
2023-02-14T14:59:19.026Z,6.75
2023-02-14T15:01:47.142Z,7.18
2023-02-14T15:04:35.401Z,7.18
2023-02-14T15:07:40.277Z,6.50
2023-02-14T15:10:28.871Z,8.70
2023-02-14T15:13:17.856Z,7.72
2023-02-14T15:15:51.063Z,7.03
2023-02-14T15:18:19.411Z,6.75
2023-02-14T15:20:50.438Z,6.60
2023-02-14T15:23:24.625Z,6.10
2023-02-14T15:25:52.253Z,6.68
2023-02-14T15:28:34.321Z,6.28
2023-02-14T15:31:07.101Z,6.43
2023-02-14T15:33:35.206Z,6.45
2023-02-14T15:36:06.485Z,7.30
2023-02-14T15:38:40.445Z,6.50
2023-02-14T15:41:08.244Z,6.95
2023-02-14T15:43:39.532Z,6.88
2023-02-14T15:46:27.678Z,6.47
2023-02-14T15:49:01.375Z,6.15
2023-02-14T15:51:35.848Z,7.53
2023-02-14T15:54:27.867Z,7.28
2023-02-14T15:56:56.749Z,7.23
2023-02-14T15:59:27.613Z,7.00
2023-02-14T16:02:18.058Z,7.53
2023-02-14T16:04:45.355Z,7.13
2023-02-14T16:07:26.412Z,10.13
2023-02-14T16:10:24.151Z,9.68
2023-02-14T16:12:57.968Z,8.57
2023-02-14T16:15:28.540Z,8.38
2023-02-14T16:17:56.245Z,8.52
2023-02-14T16:20:51.852Z,8.05
2023-02-14T16:23:29.300Z,8.15
2023-02-14T16:25:57.606Z,7.75
2023-02-14T16:28:29.177Z,7.45
2023-02-14T16:30:58.670Z,7.78
2023-02-14T16:33:28.955Z,7.55
2023-02-14T16:36:09.687Z,7.38
2023-02-14T16:38:42.988Z,7.57
2023-02-14T16:41:22.282Z,8.65
2023-02-14T16:43:50.561Z,9.32
2023-02-14T16:46:23.738Z,9.73
2023-02-14T16:48:52.707Z,9.95
2023-02-14T16:51:28.453Z,9.73
2023-02-14T16:53:58.445Z,9.52
2023-02-14T16:56:45.874Z,11.63
2023-02-14T16:59:13.031Z,9.27
2023-02-14T17:01:41.074Z,9.60
2023-02-14T17:04:08.365Z,11.10
2023-02-14T17:06:38.820Z,11.23
2023-02-14T17:09:10.245Z,10.95
2023-02-14T17:11:45.391Z,11.27
2023-02-14T17:14:15.976Z,10.45
2023-02-14T17:16:43.532Z,10.13
2023-02-14T17:19:11.307Z,11.63
2023-02-14T17:21:38.710Z,10.95
2023-02-14T17:24:06.010Z,10.10
2023-02-14T17:26:34.020Z,9.20
2023-02-14T17:29:01.168Z,10.70
2023-02-14T17:31:28.783Z,9.98
2023-02-14T17:33:56.326Z,9.98
2023-02-14T17:36:24.212Z,9.35
2023-02-14T17:38:53.918Z,9.18
2023-02-14T17:41:26.345Z,10.63
2023-02-14T17:43:55.026Z,10.60
2023-02-14T17:46:22.497Z,8.35
2023-02-14T17:48:49.803Z,10.63
2023-02-14T17:51:20.332Z,9.80
2023-02-14T17:53:48.179Z,12.13
2023-02-14T17:56:18.123Z,10.93
2023-02-14T17:58:47.926Z,11.40
2023-02-14T18:01:17.891Z,12.65
2023-02-14T18:03:45.121Z,12.15
2023-02-14T18:06:13.994Z,11.48
2023-02-14T18:08:46.343Z,10.32
2023-02-14T18:11:14.166Z,10.70
2023-02-14T18:13:41.593Z,13.23
2023-02-14T18:16:14.620Z,15.13
2023-02-14T18:18:41.843Z,13.88
2023-02-14T18:21:11.554Z,12.77
2023-02-14T18:23:39.373Z,14.10
2023-02-14T18:26:10.684Z,14.40
2023-02-14T18:28:38.518Z,12.55
2023-02-14T18:31:08.199Z,12.43
2023-02-14T18:33:36.745Z,12.35
2023-02-14T18:36:11.845Z,14.18
2023-02-14T18:38:40.320Z,15.05
2023-02-14T18:41:10.024Z,12.98
2023-02-14T18:43:37.608Z,13.73
2023-02-14T18:46:06.292Z,14.23
2023-02-14T18:48:34.148Z,13.50
2023-02-14T18:51:23.638Z,13.75
2023-02-14T18:53:52.382Z,12.43
2023-02-14T18:56:22.886Z,13.80
2023-02-14T18:58:52.898Z,12.57
2023-02-14T19:01:29.241Z,13.20
2023-02-14T19:03:59.608Z,12.43
2023-02-14T19:06:30.495Z,11.95
2023-02-14T19:08:58.039Z,12.15
2023-02-14T19:11:28.741Z,12.90
2023-02-14T19:13:57.781Z,12.48
2023-02-14T19:16:36.857Z,12.15
2023-02-14T19:19:04.921Z,13.38
2023-02-14T19:21:34.605Z,13.00
2023-02-14T19:24:03.873Z,12.77
2023-02-14T19:26:34.771Z,16.50
2023-02-14T19:29:05.757Z,14.50
2023-02-14T19:31:37.469Z,14.02
2023-02-14T19:34:06.730Z,14.25
2023-02-14T19:36:37.632Z,17.80
2023-02-14T19:39:05.080Z,16.63
2023-02-14T19:41:36.766Z,17.67
2023-02-14T19:44:05.875Z,16.35
2023-02-14T19:46:34.154Z,15.48
2023-02-14T19:49:01.917Z,15.48
2023-02-14T19:51:31.352Z,16.70
2023-02-14T19:54:00.362Z,15.93
2023-02-14T19:56:30.639Z,19.60
2023-02-14T19:58:58.174Z,19.55
2023-02-14T20:01:31.489Z,22.02
2023-02-14T20:03:59.093Z,19.48
2023-02-14T20:06:27.733Z,19.52
2023-02-14T20:08:55.785Z,18.60
2023-02-14T20:11:23.265Z,19.88
2023-02-14T20:13:51.705Z,19.85
2023-02-14T20:16:19.467Z,18.98
2023-02-14T20:18:47.060Z,19.70
2023-02-14T20:21:19.685Z,18.65
2023-02-14T20:23:47.517Z,20.08
2023-02-14T20:26:16.505Z,18.42
2023-02-14T20:28:44.821Z,17.35
2023-02-14T20:31:15.697Z,18.77
2023-02-14T20:33:43.815Z,18.23
2023-02-14T20:36:11.691Z,18.85
2023-02-14T20:38:39.686Z,17.63
2023-02-14T20:41:10.306Z,18.13
2023-02-14T20:43:40.080Z,19.10
2023-02-14T20:46:09.024Z,19.65
2023-02-14T20:48:36.691Z,20.30
2023-02-14T20:51:30.239Z,18.00
2023-02-14T20:53:57.858Z,18.80
2023-02-14T20:56:25.260Z,20.05
2023-02-14T20:58:52.517Z,20.25
2023-02-14T21:01:24.808Z,17.88
2023-02-14T21:06:26.219Z,18.98
2023-02-14T21:08:53.807Z,21.25
2023-02-14T21:11:22.773Z,21.63
2023-02-14T21:13:53.272Z,19.70
2023-02-14T21:16:21.224Z,19.52
2023-02-14T21:18:55.104Z,17.40
2023-02-14T21:21:23.617Z,17.80
2023-02-14T21:23:52.153Z,21.05
2023-02-14T21:26:20.224Z,18.33
2023-02-14T21:28:48.093Z,20.08
2023-02-14T21:31:17.436Z,20.98
2023-02-14T21:33:44.749Z,20.27
2023-02-14T21:36:15.209Z,20.42
2023-02-14T21:38:43.384Z,20.08
2023-02-14T21:41:13.463Z,21.95
2023-02-14T21:43:43.318Z,19.90
2023-02-14T21:46:27.473Z,21.27
2023-02-14T21:49:14.526Z,19.33
2023-02-14T21:51:42.434Z,24.02
2023-02-14T21:54:10.045Z,20.73
2023-02-14T21:56:37.940Z,20.35
2023-02-14T21:59:05.900Z,18.58
2023-02-14T22:01:35.422Z,22.05
2023-02-14T22:04:05.281Z,19.90
2023-02-14T22:06:36.622Z,22.02
2023-02-14T22:09:04.465Z,20.13
2023-02-14T22:11:32.390Z,23.23
2023-02-14T22:14:00.374Z,20.35
2023-02-14T22:16:27.756Z,19.08
2023-02-14T22:18:55.105Z,20.30
2023-02-14T22:21:24.959Z,18.63
2023-02-14T22:23:53.191Z,20.67
2023-02-14T22:26:31.599Z,20.67
2023-02-14T22:29:00.404Z,19.02
2023-02-14T22:31:32.536Z,22.10
2023-02-14T22:36:26.926Z,20.85
2023-02-14T22:38:54.075Z,19.45
2023-02-14T22:41:24.073Z,20.35
2023-02-14T22:43:52.264Z,18.30
2023-02-14T22:46:25.159Z,21.83
2023-02-14T22:48:53.638Z,21.48
2023-02-14T22:51:27.250Z,20.83
2023-02-14T22:53:57.021Z,20.50
2023-02-14T22:56:31.469Z,22.48
2023-02-14T22:59:02.585Z,21.88
2023-02-14T23:01:29.864Z,21.00
2023-02-14T23:03:58.786Z,22.65
2023-02-14T23:06:28.062Z,22.75
2023-02-14T23:08:56.441Z,19.55
2023-02-14T23:11:26.277Z,18.35
2023-02-14T23:14:12.298Z,18.85
2023-02-14T23:16:58.200Z,18.80
2023-02-14T23:19:45.948Z,20.70
2023-02-14T23:22:19.841Z,20.38
2023-02-14T23:24:49.397Z,22.48
2023-02-14T23:27:19.427Z,20.60
2023-02-14T23:29:46.823Z,21.73
2023-02-14T23:32:14.600Z,20.05
2023-02-14T23:34:43.256Z,22.05
2023-02-14T23:37:12.612Z,23.13
2023-02-14T23:39:40.338Z,22.70
2023-02-14T23:42:10.553Z,23.17
2023-02-14T23:44:38.373Z,22.10
2023-02-14T23:47:07.480Z,21.90
2023-02-14T23:49:37.164Z,20.80
2023-02-14T23:54:35.464Z,21.73
2023-02-14T23:57:03.655Z,20.98
2023-02-14T23:59:31.111Z,21.38
